Terminal Aerodrome Forecast
Issued by NWS Louisville, KY

Home | Current Version | Previous Version | Text Only | Print | Product List | Glossary On
Versions: 1 2 3 4 5 6 7 8 9 10 11 12 13 14 15 16 17
000
FTUS43 KLMK 241100
TAFBWG
TAF
KBWG 241140Z 2412/2512 VRB04KT 4SM BR FEW250
      TEMPO 2412/2414 2SM BR
     FM241400 24010KT P6SM FEW250
     FM242300 21004KT P6SM SCT200
     FM250900 19006KT P6SM SCT010 BKN200=

USA.gov is the U.S. government's official web portal to all federal, state and local government web resources and services.